Weather at Koralta Station Airpirt

Public forecast

Using degrees Celsius for public forecast. Weather courtesy of forecast.io.

Closest aviation weather report (METAR) to Koralta Station Airpirt

Closest report is Broken Hill Airport, 47.7 nm (88.4 km) WSW. Retrieved 2021/06/13 17:00 UTC (13 minutes ago):

YBHI 131700Z AUTO 36004KT 9999 // OVC080 12/03 Q1014

Closest aviation forecast (TAF) to Koralta Station Airpirt

Forecast is more than 12 hours old.

Closest forecast is Whyalla Airport, 257.4 nm (476.7 km) WSW. Retrieved 2018/11/15 18:03 UTC (3 years ago):

TAF YWHA 151701Z 1518/1608 VRB05KT CAVOK FM152300 18012KT CAVOK FM160200 18018KT CAVOK